sensor_id;sensor_type;location;lat;lon;timestamp;pressure;altitude;pressure_sealevel;temperature;humidity
9740;BME280;4909;42.680;26.324;2022-07-03T00:01:28;98898.59;;;23.75;66.30
9740;BME280;4909;42.680;26.324;2022-07-03T00:03:55;98903.13;;;23.85;66.04
9740;BME280;4909;42.680;26.324;2022-07-03T00:06:24;98899.69;;;23.92;65.94
9740;BME280;4909;42.680;26.324;2022-07-03T00:08:52;98892.59;;;23.72;65.87
9740;BME280;4909;42.680;26.324;2022-07-03T00:11:18;98888.59;;;23.76;64.85
9740;BME280;4909;42.680;26.324;2022-07-03T00:13:46;98892.03;;;23.59;65.79
9740;BME280;4909;42.680;26.324;2022-07-03T00:16:13;98864.22;;;23.66;65.54
9740;BME280;4909;42.680;26.324;2022-07-03T00:18:40;98885.88;;;23.86;64.42
9740;BME280;4909;42.680;26.324;2022-07-03T00:21:08;98878.00;;;23.82;65.06
9740;BME280;4909;42.680;26.324;2022-07-03T00:23:41;98875.63;;;23.60;66.08
9740;BME280;4909;42.680;26.324;2022-07-03T00:26:11;98876.63;;;23.59;66.68
9740;BME280;4909;42.680;26.324;2022-07-03T00:28:40;98875.94;;;23.67;64.67
9740;BME280;4909;42.680;26.324;2022-07-03T00:31:09;98869.22;;;23.71;64.74
9740;BME280;4909;42.680;26.324;2022-07-03T00:33:38;98875.88;;;23.86;63.61
9740;BME280;4909;42.680;26.324;2022-07-03T00:36:05;98878.81;;;24.02;63.21
9740;BME280;4909;42.680;26.324;2022-07-03T00:38:33;98871.13;;;23.98;62.09
9740;BME280;4909;42.680;26.324;2022-07-03T00:41:02;98866.16;;;23.93;62.74
9740;BME280;4909;42.680;26.324;2022-07-03T00:43:29;98867.34;;;23.81;62.90
9740;BME280;4909;42.680;26.324;2022-07-03T00:46:06;98873.22;;;23.57;64.42
9740;BME280;4909;42.680;26.324;2022-07-03T00:48:36;98864.94;;;23.59;63.95
9740;BME280;4909;42.680;26.324;2022-07-03T00:51:05;98858.81;;;23.57;63.61
9740;BME280;4909;42.680;26.324;2022-07-03T00:53:36;98859.06;;;23.44;64.64
9740;BME280;4909;42.680;26.324;2022-07-03T00:56:05;98859.94;;;23.54;63.72
9740;BME280;4909;42.680;26.324;2022-07-03T00:58:33;98856.94;;;23.67;63.39
9740;BME280;4909;42.680;26.324;2022-07-03T01:01:01;98866.06;;;23.66;63.65
9740;BME280;4909;42.680;26.324;2022-07-03T01:03:32;98872.91;;;23.70;62.93
9740;BME280;4909;42.680;26.324;2022-07-03T01:06:03;98875.94;;;23.57;63.31
9740;BME280;4909;42.680;26.324;2022-07-03T01:08:35;98870.94;;;23.53;62.83
9740;BME280;4909;42.680;26.324;2022-07-03T01:11:10;98865.78;;;23.59;63.58
9740;BME280;4909;42.680;26.324;2022-07-03T01:13:46;98863.63;;;23.63;62.98
9740;BME280;4909;42.680;26.324;2022-07-03T01:16:21;98868.94;;;23.55;62.47
9740;BME280;4909;42.680;26.324;2022-07-03T01:18:53;98872.91;;;23.41;63.16
9740;BME280;4909;42.680;26.324;2022-07-03T01:21:30;98871.53;;;23.47;62.73
9740;BME280;4909;42.680;26.324;2022-07-03T01:24:30;98872.38;;;23.47;63.55
9740;BME280;4909;42.680;26.324;2022-07-03T01:27:11;98867.38;;;23.33;64.01
9740;BME280;4909;42.680;26.324;2022-07-03T01:29:47;98867.91;;;23.36;63.62
9740;BME280;4909;42.680;26.324;2022-07-03T01:32:19;98864.22;;;23.28;64.34
9740;BME280;4909;42.680;26.324;2022-07-03T01:34:52;98866.50;;;23.23;63.66
9740;BME280;4909;42.680;26.324;2022-07-03T01:37:22;98867.78;;;23.28;63.14
9740;BME280;4909;42.680;26.324;2022-07-03T01:39:52;98859.66;;;23.28;62.84
9740;BME280;4909;42.680;26.324;2022-07-03T01:42:22;98855.50;;;23.34;63.57
9740;BME280;4909;42.680;26.324;2022-07-03T01:44:51;98860.91;;;23.34;62.81
9740;BME280;4909;42.680;26.324;2022-07-03T01:47:18;98862.06;;;23.31;62.40
9740;BME280;4909;42.680;26.324;2022-07-03T01:49:45;98859.50;;;23.30;62.21
9740;BME280;4909;42.680;26.324;2022-07-03T01:52:15;98856.97;;;23.28;62.12
9740;BME280;4909;42.680;26.324;2022-07-03T01:54:42;98861.50;;;23.28;62.88
9740;BME280;4909;42.680;26.324;2022-07-03T01:57:11;98841.84;;;23.16;61.89
9740;BME280;4909;42.680;26.324;2022-07-03T01:59:39;98865.78;;;23.21;61.85
9740;BME280;4909;42.680;26.324;2022-07-03T02:02:14;98858.81;;;23.18;62.42
9740;BME280;4909;42.680;26.324;2022-07-03T02:04:54;98852.09;;;22.93;63.47
9740;BME280;4909;42.680;26.324;2022-07-03T02:07:31;98849.66;;;23.00;62.70
9740;BME280;4909;42.680;26.324;2022-07-03T02:10:03;98846.50;;;23.05;63.00
9740;BME280;4909;42.680;26.324;2022-07-03T02:12:37;98848.22;;;22.96;63.64
9740;BME280;4909;42.680;26.324;2022-07-03T02:15:09;98848.53;;;23.03;62.97
9740;BME280;4909;42.680;26.324;2022-07-03T02:17:38;98843.38;;;22.90;63.48
9740;BME280;4909;42.680;26.324;2022-07-03T02:20:06;98846.09;;;23.00;64.14
9740;BME280;4909;42.680;26.324;2022-07-03T02:22:35;98840.66;;;23.00;63.71
9740;BME280;4909;42.680;26.324;2022-07-03T02:25:04;98848.09;;;23.07;63.63
9740;BME280;4909;42.680;26.324;2022-07-03T02:27:39;98848.09;;;23.07;62.92
9740;BME280;4909;42.680;26.324;2022-07-03T02:30:11;98855.22;;;22.99;62.73
9740;BME280;4909;42.680;26.324;2022-07-03T02:32:42;98854.34;;;22.88;63.13
9740;BME280;4909;42.680;26.324;2022-07-03T02:35:11;98857.19;;;22.77;63.59
9740;BME280;4909;42.680;26.324;2022-07-03T02:37:43;98849.38;;;22.93;62.80
9740;BME280;4909;42.680;26.324;2022-07-03T02:40:19;98850.25;;;22.94;62.80
9740;BME280;4909;42.680;26.324;2022-07-03T02:42:58;98854.81;;;23.03;62.20
9740;BME280;4909;42.680;26.324;2022-07-03T02:45:39;98858.34;;;22.84;61.67
9740;BME280;4909;42.680;26.324;2022-07-03T02:48:12;98867.16;;;22.96;62.41
9740;BME280;4909;42.680;26.324;2022-07-03T02:50:46;98862.31;;;22.90;60.26
9740;BME280;4909;42.680;26.324;2022-07-03T02:53:21;98859.91;;;22.96;61.08
9740;BME280;4909;42.680;26.324;2022-07-03T02:55:58;98860.88;;;22.76;60.47
9740;BME280;4909;42.680;26.324;2022-07-03T02:58:41;98868.13;;;22.76;60.79
9740;BME280;4909;42.680;26.324;2022-07-03T03:01:18;98868.28;;;22.74;61.13
9740;BME280;4909;42.680;26.324;2022-07-03T03:03:56;98869.75;;;22.98;60.41
9740;BME280;4909;42.680;26.324;2022-07-03T03:06:29;98870.63;;;23.08;60.29
9740;BME280;4909;42.680;26.324;2022-07-03T03:09:01;98866.34;;;23.24;60.76
9740;BME280;4909;42.680;26.324;2022-07-03T03:11:34;98840.53;;;23.11;60.21
9740;BME280;4909;42.680;26.324;2022-07-03T03:14:08;98865.34;;;23.25;59.71
9740;BME280;4909;42.680;26.324;2022-07-03T03:16:43;98866.94;;;23.18;60.78
9740;BME280;4909;42.680;26.324;2022-07-03T03:19:12;98868.19;;;23.14;60.58
9740;BME280;4909;42.680;26.324;2022-07-03T03:21:48;98867.34;;;23.04;61.18
9740;BME280;4909;42.680;26.324;2022-07-03T03:24:18;98868.03;;;22.96;61.81
9740;BME280;4909;42.680;26.324;2022-07-03T03:26:45;98879.44;;;23.10;61.95
9740;BME280;4909;42.680;26.324;2022-07-03T03:29:12;98874.88;;;23.20;61.11
9740;BME280;4909;42.680;26.324;2022-07-03T03:31:40;98875.31;;;23.25;61.34
9740;BME280;4909;42.680;26.324;2022-07-03T03:34:09;98866.63;;;23.31;61.43
9740;BME280;4909;42.680;26.324;2022-07-03T03:36:36;98875.91;;;23.19;60.89
9740;BME280;4909;42.680;26.324;2022-07-03T03:39:03;98880.03;;;23.23;61.39
9740;BME280;4909;42.680;26.324;2022-07-03T03:41:31;98875.19;;;23.26;60.70
9740;BME280;4909;42.680;26.324;2022-07-03T03:43:59;98878.63;;;23.28;60.76
9740;BME280;4909;42.680;26.324;2022-07-03T03:46:26;98880.91;;;23.33;61.10
9740;BME280;4909;42.680;26.324;2022-07-03T03:48:54;98885.03;;;23.37;60.32
9740;BME280;4909;42.680;26.324;2022-07-03T03:51:22;98884.72;;;23.40;60.77
9740;BME280;4909;42.680;26.324;2022-07-03T03:53:49;98884.50;;;23.53;60.30
9740;BME280;4909;42.680;26.324;2022-07-03T03:56:16;98884.34;;;23.54;59.81
9740;BME280;4909;42.680;26.324;2022-07-03T03:58:43;98876.94;;;23.47;60.55
9740;BME280;4909;42.680;26.324;2022-07-03T04:01:11;98881.06;;;23.51;60.56
9740;BME280;4909;42.680;26.324;2022-07-03T04:03:38;98882.78;;;23.61;59.88
9740;BME280;4909;42.680;26.324;2022-07-03T04:06:07;98878.34;;;23.70;60.58
9740;BME280;4909;42.680;26.324;2022-07-03T04:08:34;98838.69;;;23.40;58.77
9740;BME280;4909;42.680;26.324;2022-07-03T04:11:01;98884.72;;;23.78;59.93
9740;BME280;4909;42.680;26.324;2022-07-03T04:13:28;98882.84;;;23.89;59.72
9740;BME280;4909;42.680;26.324;2022-07-03T04:15:55;98882.69;;;24.00;59.23
9740;BME280;4909;42.680;26.324;2022-07-03T04:18:23;98868.41;;;24.07;59.19
9740;BME280;4909;42.680;26.324;2022-07-03T04:20:50;98878.22;;;24.28;59.22
9740;BME280;4909;42.680;26.324;2022-07-03T04:23:18;98885.97;;;24.50;57.94
9740;BME280;4909;42.680;26.324;2022-07-03T04:25:46;98885.66;;;24.80;58.03
9740;BME280;4909;42.680;26.324;2022-07-03T04:28:13;98884.13;;;25.05;56.45
9740;BME280;4909;42.680;26.324;2022-07-03T04:30:40;98878.44;;;24.98;57.05
9740;BME280;4909;42.680;26.324;2022-07-03T04:33:07;98889.81;;;25.12;57.67
9740;BME280;4909;42.680;26.324;2022-07-03T04:35:34;98887.41;;;25.26;57.07
9740;BME280;4909;42.680;26.324;2022-07-03T04:38:00;98885.63;;;25.35;56.90
9740;BME280;4909;42.680;26.324;2022-07-03T04:40:29;98892.75;;;25.18;57.58
9740;BME280;4909;42.680;26.324;2022-07-03T04:42:56;98895.63;;;25.17;58.23
9740;BME280;4909;42.680;26.324;2022-07-03T04:45:23;98899.53;;;25.32;56.98
9740;BME280;4909;42.680;26.324;2022-07-03T04:47:49;98894.06;;;25.14;57.65
9740;BME280;4909;42.680;26.324;2022-07-03T04:50:16;98891.97;;;24.81;59.45
9740;BME280;4909;42.680;26.324;2022-07-03T04:52:43;98899.13;;;24.45;61.13
9740;BME280;4909;42.680;26.324;2022-07-03T04:55:10;98889.44;;;24.42;61.98
9740;BME280;4909;42.680;26.324;2022-07-03T04:57:39;98894.22;;;24.21;62.59
9740;BME280;4909;42.680;26.324;2022-07-03T05:00:06;98891.78;;;24.28;64.10
9740;BME280;4909;42.680;26.324;2022-07-03T05:02:33;98896.50;;;24.06;67.30
9740;BME280;4909;42.680;26.324;2022-07-03T05:05:00;98898.44;;;23.87;69.38
9740;BME280;4909;42.680;26.324;2022-07-03T05:07:28;98893.94;;;24.14;68.85
9740;BME280;4909;42.680;26.324;2022-07-03T05:09:55;98898.00;;;23.81;69.21
9740;BME280;4909;42.680;26.324;2022-07-03T05:12:22;98894.03;;;23.57;73.17
9740;BME280;4909;42.680;26.324;2022-07-03T05:14:50;98901.97;;;23.39;75.85
9740;BME280;4909;42.680;26.324;2022-07-03T05:17:18;98879.63;;;23.27;75.58
9740;BME280;4909;42.680;26.324;2022-07-03T05:19:45;98900.31;;;23.57;75.94
9740;BME280;4909;42.680;26.324;2022-07-03T05:22:12;98896.44;;;23.60;77.22
9740;BME280;4909;42.680;26.324;2022-07-03T05:24:38;98910.88;;;23.60;76.52
9740;BME280;4909;42.680;26.324;2022-07-03T05:27:05;98905.16;;;23.54;78.28
9740;BME280;4909;42.680;26.324;2022-07-03T05:29:32;98904.00;;;23.37;78.30
9740;BME280;4909;42.680;26.324;2022-07-03T05:32:00;98904.00;;;23.37;78.56
9740;BME280;4909;42.680;26.324;2022-07-03T05:34:27;98908.97;;;23.32;77.77
9740;BME280;4909;42.680;26.324;2022-07-03T05:36:54;98901.97;;;23.39;77.76
9740;BME280;4909;42.680;26.324;2022-07-03T05:39:22;98916.16;;;23.52;75.10
9740;BME280;4909;42.680;26.324;2022-07-03T05:42:04;98920.84;;;23.69;76.93
9740;BME280;4909;42.680;26.324;2022-07-03T05:44:31;98913.41;;;23.81;75.42
9740;BME280;4909;42.680;26.324;2022-07-03T05:46:57;98919.53;;;23.83;73.56
9740;BME280;4909;42.680;26.324;2022-07-03T05:49:26;98920.69;;;23.71;74.29
9740;BME280;4909;42.680;26.324;2022-07-03T05:51:53;98914.13;;;23.83;75.01
9740;BME280;4909;42.680;26.324;2022-07-03T05:54:20;98925.81;;;23.83;74.88
9740;BME280;4909;42.680;26.324;2022-07-03T05:56:47;98922.38;;;24.01;73.72
9740;BME280;4909;42.680;26.324;2022-07-03T05:59:14;98926.47;;;24.14;72.84
9740;BME280;4909;42.680;26.324;2022-07-03T06:01:40;98925.16;;;24.38;71.29
9740;BME280;4909;42.680;26.324;2022-07-03T06:04:07;98919.66;;;24.57;71.29
9740;BME280;4909;42.680;26.324;2022-07-03T06:06:36;98929.66;;;24.84;70.20
9740;BME280;4909;42.680;26.324;2022-07-03T06:09:03;98935.41;;;25.08;70.01
9740;BME280;4909;42.680;26.324;2022-07-03T06:11:30;98930.81;;;24.91;66.97
9740;BME280;4909;42.680;26.324;2022-07-03T06:13:57;98937.72;;;25.03;63.68
9740;BME280;4909;42.680;26.324;2022-07-03T06:16:24;98933.50;;;25.18;64.36
9740;BME280;4909;42.680;26.324;2022-07-03T06:18:51;98885.44;;;25.19;64.12
9740;BME280;4909;42.680;26.324;2022-07-03T06:21:18;98934.09;;;25.75;63.36
9740;BME280;4909;42.680;26.324;2022-07-03T06:23:46;98937.69;;;26.01;60.40
9740;BME280;4909;42.680;26.324;2022-07-03T06:26:13;98935.63;;;26.21;55.79
9740;BME280;4909;42.680;26.324;2022-07-03T06:28:41;98926.53;;;26.30;57.55
9740;BME280;4909;42.680;26.324;2022-07-03T06:31:08;98922.38;;;26.44;57.35
9740;BME280;4909;42.680;26.324;2022-07-03T06:33:34;98935.97;;;26.69;55.68
9740;BME280;4909;42.680;26.324;2022-07-03T06:36:02;98931.09;;;26.81;56.76
9740;BME280;4909;42.680;26.324;2022-07-03T06:38:29;98930.59;;;26.86;56.43
9740;BME280;4909;42.680;26.324;2022-07-03T06:40:57;98927.63;;;27.05;54.16
9740;BME280;4909;42.680;26.324;2022-07-03T06:43:24;98929.66;;;27.03;53.03
9740;BME280;4909;42.680;26.324;2022-07-03T06:45:51;98926.91;;;26.95;52.61
9740;BME280;4909;42.680;26.324;2022-07-03T06:48:18;98927.50;;;26.80;52.28
9740;BME280;4909;42.680;26.324;2022-07-03T06:50:45;98931.53;;;26.68;52.51
9740;BME280;4909;42.680;26.324;2022-07-03T06:53:12;98931.88;;;26.99;53.20
9740;BME280;4909;42.680;26.324;2022-07-03T06:55:39;98934.06;;;26.96;53.84
9740;BME280;4909;42.680;26.324;2022-07-03T06:58:07;98926.50;;;26.81;53.14
9740;BME280;4909;42.680;26.324;2022-07-03T07:00:34;98925.94;;;26.78;54.58
9740;BME280;4909;42.680;26.324;2022-07-03T07:03:03;98931.59;;;26.85;55.63
9740;BME280;4909;42.680;26.324;2022-07-03T07:05:30;98932.84;;;26.90;54.28
9740;BME280;4909;42.680;26.324;2022-07-03T07:07:57;98931.88;;;26.73;56.04
9740;BME280;4909;42.680;26.324;2022-07-03T07:10:24;98927.13;;;27.01;55.31
9740;BME280;4909;42.680;26.324;2022-07-03T07:12:51;98931.94;;;27.15;53.04
9740;BME280;4909;42.680;26.324;2022-07-03T07:15:20;98931.66;;;26.93;53.46
9740;BME280;4909;42.680;26.324;2022-07-03T07:17:47;98927.41;;;26.90;52.82
9740;BME280;4909;42.680;26.324;2022-07-03T07:20:13;98927.63;;;27.05;53.20
9740;BME280;4909;42.680;26.324;2022-07-03T07:22:40;98928.56;;;27.30;54.33
9740;BME280;4909;42.680;26.324;2022-07-03T07:25:07;98926.84;;;27.37;54.34
9740;BME280;4909;42.680;26.324;2022-07-03T07:27:34;98927.41;;;27.48;54.39
9740;BME280;4909;42.680;26.324;2022-07-03T07:30:03;98931.00;;;27.65;53.24
9740;BME280;4909;42.680;26.324;2022-07-03T07:32:31;98933.56;;;27.75;54.01
9740;BME280;4909;42.680;26.324;2022-07-03T07:34:58;98929.50;;;27.71;51.38
9740;BME280;4909;42.680;26.324;2022-07-03T07:37:25;98929.50;;;27.71;51.39
9740;BME280;4909;42.680;26.324;2022-07-03T07:39:52;98932.22;;;27.71;53.03
9740;BME280;4909;42.680;26.324;2022-07-03T07:42:19;98929.16;;;27.74;51.02
9740;BME280;4909;42.680;26.324;2022-07-03T07:44:46;98927.09;;;27.84;50.26
9740;BME280;4909;42.680;26.324;2022-07-03T07:47:13;98934.78;;;28.04;50.39
9740;BME280;4909;42.680;26.324;2022-07-03T07:49:41;98925.06;;;28.10;51.84
9740;BME280;4909;42.680;26.324;2022-07-03T07:52:08;98923.88;;;27.96;51.59
9740;BME280;4909;42.680;26.324;2022-07-03T07:54:35;98930.53;;;28.18;51.13
9740;BME280;4909;42.680;26.324;2022-07-03T07:57:02;98932.06;;;28.37;49.63
9740;BME280;4909;42.680;26.324;2022-07-03T07:59:29;98926.22;;;28.48;49.22
9740;BME280;4909;42.680;26.324;2022-07-03T08:01:56;98935.63;;;28.45;49.92
9740;BME280;4909;42.680;26.324;2022-07-03T08:04:42;98924.28;;;28.73;49.83
9740;BME280;4909;42.680;26.324;2022-07-03T08:07:26;98914.13;;;28.98;49.39
9740;BME280;4909;42.680;26.324;2022-07-03T08:09:53;98918.41;;;28.92;49.55
9740;BME280;4909;42.680;26.324;2022-07-03T08:12:19;98925.53;;;29.01;49.49
9740;BME280;4909;42.680;26.324;2022-07-03T08:14:46;98926.88;;;29.05;49.43
9740;BME280;4909;42.680;26.324;2022-07-03T08:17:13;98924.66;;;29.09;49.56
9740;BME280;4909;42.680;26.324;2022-07-03T08:19:42;98928.03;;;29.19;48.67
9740;BME280;4909;42.680;26.324;2022-07-03T08:22:08;98921.72;;;28.79;50.64
9740;BME280;4909;42.680;26.324;2022-07-03T08:24:35;98925.47;;;28.62;51.47
9740;BME280;4909;42.680;26.324;2022-07-03T08:27:04;98927.84;;;28.81;51.96
9740;BME280;4909;42.680;26.324;2022-07-03T08:29:31;98919.09;;;28.86;50.35
9740;BME280;4909;42.680;26.324;2022-07-03T08:31:58;98921.25;;;29.07;51.11
9740;BME280;4909;42.680;26.324;2022-07-03T08:34:25;98921.66;;;29.26;50.74
9740;BME280;4909;42.680;26.324;2022-07-03T08:36:53;98925.97;;;29.52;51.43
9740;BME280;4909;42.680;26.324;2022-07-03T08:39:20;98929.63;;;29.67;51.49
9740;BME280;4909;42.680;26.324;2022-07-03T08:41:48;98927.50;;;29.77;49.87
9740;BME280;4909;42.680;26.324;2022-07-03T08:44:17;98922.97;;;29.84;50.13
9740;BME280;4909;42.680;26.324;2022-07-03T08:46:45;98929.69;;;29.82;47.91
9740;BME280;4909;42.680;26.324;2022-07-03T08:49:14;98921.56;;;29.96;49.18
9740;BME280;4909;42.680;26.324;2022-07-03T08:51:41;98921.38;;;30.12;49.91
9740;BME280;4909;42.680;26.324;2022-07-03T08:54:10;98925.56;;;30.23;48.48
9740;BME280;4909;42.680;26.324;2022-07-03T08:56:37;98918.97;;;30.32;47.51
9740;BME280;4909;42.680;26.324;2022-07-03T08:59:05;98912.97;;;30.51;48.19
9740;BME280;4909;42.680;26.324;2022-07-03T09:01:33;98915.50;;;30.38;44.84
9740;BME280;4909;42.680;26.324;2022-07-03T09:04:05;98916.16;;;30.40;45.41
9740;BME280;4909;42.680;26.324;2022-07-03T09:06:32;98899.34;;;30.29;45.39
9740;BME280;4909;42.680;26.324;2022-07-03T09:09:02;98911.84;;;30.46;44.49
9740;BME280;4909;42.680;26.324;2022-07-03T09:11:31;98907.59;;;30.73;44.20
9740;BME280;4909;42.680;26.324;2022-07-03T09:13:58;98910.78;;;30.91;43.18
9740;BME280;4909;42.680;26.324;2022-07-03T09:16:24;98917.59;;;30.95;41.18
9740;BME280;4909;42.680;26.324;2022-07-03T09:18:51;98907.38;;;30.89;42.53
9740;BME280;4909;42.680;26.324;2022-07-03T09:21:19;98907.78;;;30.86;43.15
9740;BME280;4909;42.680;26.324;2022-07-03T09:23:46;98908.25;;;31.04;41.94
9740;BME280;4909;42.680;26.324;2022-07-03T09:26:14;98908.78;;;31.14;42.09
9740;BME280;4909;42.680;26.324;2022-07-03T09:28:45;98913.63;;;31.12;40.57
9740;BME280;4909;42.680;26.324;2022-07-03T09:31:15;98902.28;;;30.86;41.86
9740;BME280;4909;42.680;26.324;2022-07-03T09:33:54;98909.38;;;31.10;40.66
9740;BME280;4909;42.680;26.324;2022-07-03T09:36:22;98904.53;;;31.26;38.73
9740;BME280;4909;42.680;26.324;2022-07-03T09:38:49;98891.56;;;31.20;38.98
9740;BME280;4909;42.680;26.324;2022-07-03T09:41:16;98888.69;;;31.07;39.93
9740;BME280;4909;42.680;26.324;2022-07-03T09:43:44;98900.06;;;31.25;38.86
9740;BME280;4909;42.680;26.324;2022-07-03T09:46:11;98883.97;;;31.37;37.24
9740;BME280;4909;42.680;26.324;2022-07-03T09:48:39;98888.28;;;31.46;37.58
9740;BME280;4909;42.680;26.324;2022-07-03T09:51:15;98883.66;;;31.68;37.89
9740;BME280;4909;42.680;26.324;2022-07-03T09:53:53;98883.47;;;31.69;38.16
9740;BME280;4909;42.680;26.324;2022-07-03T09:56:23;98873.47;;;31.83;38.34
9740;BME280;4909;42.680;26.324;2022-07-03T09:59:04;98875.34;;;32.04;38.25
9740;BME280;4909;42.680;26.324;2022-07-03T10:01:31;98881.44;;;31.99;37.93
9740;BME280;4909;42.680;26.324;2022-07-03T10:04:09;98888.25;;;32.10;37.52
9740;BME280;4909;42.680;26.324;2022-07-03T10:06:50;98877.84;;;31.77;34.97
9740;BME280;4909;42.680;26.324;2022-07-03T10:09:19;98884.34;;;31.70;37.05
9740;BME280;4909;42.680;26.324;2022-07-03T10:11:46;98875.41;;;31.61;36.29
9740;BME280;4909;42.680;26.324;2022-07-03T10:14:15;98872.94;;;31.73;36.70
9740;BME280;4909;42.680;26.324;2022-07-03T10:16:43;98859.25;;;31.16;36.22
9740;BME280;4909;42.680;26.324;2022-07-03T10:19:13;98869.66;;;31.41;36.56
9740;BME280;4909;42.680;26.324;2022-07-03T10:21:42;98869.34;;;31.51;36.11
9740;BME280;4909;42.680;26.324;2022-07-03T10:24:11;98860.59;;;31.62;35.60
9740;BME280;4909;42.680;26.324;2022-07-03T10:26:39;98845.41;;;31.60;35.63
9740;BME280;4909;42.680;26.324;2022-07-03T10:29:09;98828.94;;;31.60;35.95
9740;BME280;4909;42.680;26.324;2022-07-03T10:31:44;98864.47;;;31.68;35.33
9740;BME280;4909;42.680;26.324;2022-07-03T10:34:14;98854.88;;;31.42;35.06
9740;BME280;4909;42.680;26.324;2022-07-03T10:36:43;98853.88;;;31.65;35.57
9740;BME280;4909;42.680;26.324;2022-07-03T10:39:18;98853.94;;;31.50;35.47
9740;BME280;4909;42.680;26.324;2022-07-03T10:41:50;98850.97;;;31.30;35.88
9740;BME280;4909;42.680;26.324;2022-07-03T10:44:49;98842.81;;;31.37;36.46
9740;BME280;4909;42.680;26.324;2022-07-03T10:47:42;98843.91;;;31.42;36.06
9740;BME280;4909;42.680;26.324;2022-07-03T10:50:10;98843.88;;;31.36;36.33
9740;BME280;4909;42.680;26.324;2022-07-03T10:52:38;98829.88;;;31.31;36.16
9740;BME280;4909;42.680;26.324;2022-07-03T10:55:06;98838.16;;;31.16;36.77
9740;BME280;4909;42.680;26.324;2022-07-03T10:57:34;98835.97;;;31.26;37.09
9740;BME280;4909;42.680;26.324;2022-07-03T11:00:05;98827.13;;;31.10;36.95
9740;BME280;4909;42.680;26.324;2022-07-03T11:02:38;98832.88;;;31.00;37.80
9740;BME280;4909;42.680;26.324;2022-07-03T11:05:26;98824.91;;;30.84;37.79
9740;BME280;4909;42.680;26.324;2022-07-03T11:08:10;98835.38;;;30.80;38.68
9740;BME280;4909;42.680;26.324;2022-07-03T11:10:40;98820.75;;;30.73;38.94
9740;BME280;4909;42.680;26.324;2022-07-03T11:13:09;98820.38;;;30.61;39.00
9740;BME280;4909;42.680;26.324;2022-07-03T11:15:39;98813.75;;;30.71;38.44
9740;BME280;4909;42.680;26.324;2022-07-03T11:18:14;98803.66;;;30.71;38.83
9740;BME280;4909;42.680;26.324;2022-07-03T11:24:26;98824.78;;;30.92;38.20
9740;BME280;4909;42.680;26.324;2022-07-03T11:27:12;98820.16;;;30.92;38.28
9740;BME280;4909;42.680;26.324;2022-07-03T11:29:39;98786.59;;;30.54;38.26
9740;BME280;4909;42.680;26.324;2022-07-03T11:35:07;98816.72;;;30.69;39.18
9740;BME280;4909;42.680;26.324;2022-07-03T11:37:34;98815.28;;;30.73;39.59
9740;BME280;4909;42.680;26.324;2022-07-03T11:40:03;98763.72;;;30.62;39.77
9740;BME280;4909;42.680;26.324;2022-07-03T11:42:34;98812.78;;;30.93;39.48
9740;BME280;4909;42.680;26.324;2022-07-03T11:45:01;98801.56;;;30.88;39.53
9740;BME280;4909;42.680;26.324;2022-07-03T11:47:28;98792.84;;;30.84;38.97
9740;BME280;4909;42.680;26.324;2022-07-03T11:49:55;98804.59;;;30.78;40.40
9740;BME280;4909;42.680;26.324;2022-07-03T11:52:31;98803.47;;;30.73;39.96
9740;BME280;4909;42.680;26.324;2022-07-03T11:54:59;98782.19;;;30.75;39.75
9740;BME280;4909;42.680;26.324;2022-07-03T11:57:27;98817.06;;;30.66;40.46
9740;BME280;4909;42.680;26.324;2022-07-03T12:00:03;98799.22;;;30.55;40.94
9740;BME280;4909;42.680;26.324;2022-07-03T12:02:30;98796.72;;;30.54;40.77
9740;BME280;4909;42.680;26.324;2022-07-03T12:04:57;98788.56;;;30.60;41.49
9740;BME280;4909;42.680;26.324;2022-07-03T12:07:24;98797.16;;;30.57;41.51
9740;BME280;4909;42.680;26.324;2022-07-03T12:09:51;98801.69;;;30.50;40.25
9740;BME280;4909;42.680;26.324;2022-07-03T12:12:23;98763.72;;;30.33;41.93
9740;BME280;4909;42.680;26.324;2022-07-03T12:14:55;98798.47;;;30.61;41.47
9740;BME280;4909;42.680;26.324;2022-07-03T12:17:23;98784.13;;;30.45;41.16
9740;BME280;4909;42.680;26.324;2022-07-03T12:19:52;98751.84;;;30.40;42.41
9740;BME280;4909;42.680;26.324;2022-07-03T12:22:27;98786.22;;;30.57;41.50
9740;BME280;4909;42.680;26.324;2022-07-03T12:24:56;98781.75;;;30.42;42.18
9740;BME280;4909;42.680;26.324;2022-07-03T12:27:24;98783.56;;;30.35;42.04
9740;BME280;4909;42.680;26.324;2022-07-03T12:29:52;98774.78;;;30.39;43.03
9740;BME280;4909;42.680;26.324;2022-07-03T12:32:20;98765.25;;;30.50;43.50
9740;BME280;4909;42.680;26.324;2022-07-03T12:34:47;98762.31;;;30.51;42.08
9740;BME280;4909;42.680;26.324;2022-07-03T12:37:14;98780.06;;;30.55;42.61
9740;BME280;4909;42.680;26.324;2022-07-03T12:39:42;98771.94;;;30.47;42.67
9740;BME280;4909;42.680;26.324;2022-07-03T12:42:16;98763.81;;;30.39;42.54
9740;BME280;4909;42.680;26.324;2022-07-03T12:44:56;98763.72;;;30.33;43.74
9740;BME280;4909;42.680;26.324;2022-07-03T12:47:23;98768.06;;;30.27;42.72
9740;BME280;4909;42.680;26.324;2022-07-03T12:49:57;98749.94;;;30.11;43.60
9740;BME280;4909;42.680;26.324;2022-07-03T12:52:26;98761.28;;;30.23;42.98
9740;BME280;4909;42.680;26.324;2022-07-03T12:54:53;98765.53;;;30.26;43.36
9740;BME280;4909;42.680;26.324;2022-07-03T12:57:21;98761.28;;;30.23;43.10
9740;BME280;4909;42.680;26.324;2022-07-03T13:00:10;98745.81;;;30.15;43.40
9740;BME280;4909;42.680;26.324;2022-07-03T13:02:38;98747.59;;;30.23;44.07
9740;BME280;4909;42.680;26.324;2022-07-03T13:05:16;98739.38;;;30.08;43.97
9740;BME280;4909;42.680;26.324;2022-07-03T13:07:45;98745.72;;;30.09;44.41
9740;BME280;4909;42.680;26.324;2022-07-03T13:10:13;98754.03;;;30.15;44.37
9740;BME280;4909;42.680;26.324;2022-07-03T13:12:50;98740.91;;;30.11;44.42
9740;BME280;4909;42.680;26.324;2022-07-03T13:15:19;98737.59;;;30.15;44.74
9740;BME280;4909;42.680;26.324;2022-07-03T13:17:55;98731.63;;;30.12;44.97
9740;BME280;4909;42.680;26.324;2022-07-03T13:20:23;98735.88;;;30.29;45.42
9740;BME280;4909;42.680;26.324;2022-07-03T13:22:51;98746.25;;;30.34;45.42
9740;BME280;4909;42.680;26.324;2022-07-03T13:25:18;98735.63;;;30.45;45.02
9740;BME280;4909;42.680;26.324;2022-07-03T13:27:46;98750.50;;;30.36;43.34
9740;BME280;4909;42.680;26.324;2022-07-03T13:30:13;98740.41;;;30.22;42.72